Wellton, AZ (85356)

6:43 AM MST on October 21, 2014 (GMT -0700)
WMIDD-Wellton | Change Station
CLOSE
Current Station
Personal Weather Station
Location: Wellton, AZ
Elevation: 285 ft
Nearby Weather Stations

Elev 285 ft 32.68 °N, 114.11 °W | Updated 1 minute ago

Clear
Clear
62.8 °F
Feels Like 62.8 °F
N
0.0
Wind Variable Wind from ENE
Gusts 1.0 mph

Today
High -- | Low -- °F
--% Chance of Precip.
Yesterday
High -- | Low -- °F
Precip. -- in
6:44 AM 5:56 PM
Waning Crescent, 5% visible
Pressure 29.79 in
Visibility 10.0 miles
Clouds Clear
Dew Point 53 °F
Humidity 70%
Rainfall 0.00 in
Snow Depth Not available.
UV 0 out of 12
Pollen 6.80 out of 12
Air Quality Not available.
Flu Activity No Activity
METAR KNYL 211257Z 02003KT 10SM CLR 22/14 A2980 RMK AO2 SLP087 T02220144

More Conditions Fewer Conditions

Pressure 29.79 in
Visibility 10.0 miles
Clouds Clear
Dew Point 53 °F
Humidity 70%
Rainfall 0.00 in
Snow Depth Not available.
UV 0 out of 12
Pollen 6.80 out of 12
Air Quality Not available.
Flu Activity No Activity
METAR KNYL 211257Z 02003KT 10SM CLR 22/14 A2980 RMK AO2 SLP087 T02220144

More Conditions Fewer Conditions

10-Day Weather Forecast

Almanac

Astronomy

Oct. 21, 2014 Rise Set
Actual Time 6:44 AM MST 5:56 PM MST
Civil Twilight 6:19 AM MST 6:21 PM MST
Nautical Twilight 5:51 AM MST 6:50 PM MST
Astronomical Twilight 5:22 AM MST 7:18 PM MST
Moon 4:40 AM MST 4:47 PM MST
Length of Visible Light 12h 01m
Length of Day
11h 11m
Tomorrow will be 1m 52s shorter.
Waning Crescent, 5% of the Moon is Illuminated
Today
Waning Crescent
Oct 23
New
Oct 30
First Quarter
Nov 6
Full
Nov 14
Last Quarter

Today's Extremes

State Highs State Lows

Community

WunderPhotos

Upload Photos

1,763,662 photos uploaded!

Nearby

Snow Depth

Station Depth Elevation
Baker Butte 1 in 7300 ft
Workman Creek 1 in 6900 ft
White Horse Lake 1 in 7180 ft
Happy Jack 0 in 7630 ft
Promontory 1 in 7930 ft

Earthquake Activity

City Distance Mag. Time & Date
No recent earthquake activity has been reported nearby.
Minimum magnitude displayed is 2.5.

Coastal Water Temperatures

Place Temperature
No Stations Reporting

Nearby Weather Stations